sensor_id;sensor_type;location;lat;lon;timestamp;temperature;humidity
32907;DHT22;19259;51.590;5.320;2022-09-27T00:00:46;10.10;99.90
32907;DHT22;19259;51.590;5.320;2022-09-27T00:03:14;10.00;99.90
32907;DHT22;19259;51.590;5.320;2022-09-27T00:05:41;10.10;99.90
32907;DHT22;19259;51.590;5.320;2022-09-27T00:08:10;10.00;99.90
32907;DHT22;19259;51.590;5.320;2022-09-27T00:10:38;10.00;99.90
32907;DHT22;19259;51.590;5.320;2022-09-27T00:13:05;10.00;99.90
32907;DHT22;19259;51.590;5.320;2022-09-27T00:15:33;10.00;99.90
32907;DHT22;19259;51.590;5.320;2022-09-27T00:18:00;10.00;99.90
32907;DHT22;19259;51.590;5.320;2022-09-27T00:20:28;10.00;99.90
32907;DHT22;19259;51.590;5.320;2022-09-27T00:22:55;10.00;99.90
32907;DHT22;19259;51.590;5.320;2022-09-27T00:25:23;10.10;99.90
32907;DHT22;19259;51.590;5.320;2022-09-27T00:27:50;10.10;99.90
32907;DHT22;19259;51.590;5.320;2022-09-27T00:30:18;10.00;99.90
32907;DHT22;19259;51.590;5.320;2022-09-27T00:32:45;9.90;99.90
32907;DHT22;19259;51.590;5.320;2022-09-27T00:35:13;9.90;99.90
32907;DHT22;19259;51.590;5.320;2022-09-27T00:37:41;9.90;99.90
32907;DHT22;19259;51.590;5.320;2022-09-27T00:40:09;9.90;99.90
32907;DHT22;19259;51.590;5.320;2022-09-27T00:42:37;9.90;99.90
32907;DHT22;19259;51.590;5.320;2022-09-27T00:45:12;9.90;99.90
32907;DHT22;19259;51.590;5.320;2022-09-27T00:47:55;9.90;99.90
32907;DHT22;19259;51.590;5.320;2022-09-27T00:50:34;10.00;99.90
32907;DHT22;19259;51.590;5.320;2022-09-27T00:55:51;10.00;99.90
32907;DHT22;19259;51.590;5.320;2022-09-27T00:58:22;10.00;99.90
32907;DHT22;19259;51.590;5.320;2022-09-27T01:00:52;9.90;99.90
32907;DHT22;19259;51.590;5.320;2022-09-27T01:03:48;9.90;99.90
32907;DHT22;19259;51.590;5.320;2022-09-27T01:06:15;9.90;99.90
32907;DHT22;19259;51.590;5.320;2022-09-27T01:08:44;9.90;99.90
32907;DHT22;19259;51.590;5.320;2022-09-27T01:14:23;9.80;99.90
32907;DHT22;19259;51.590;5.320;2022-09-27T01:19:43;9.80;99.90
32907;DHT22;19259;51.590;5.320;2022-09-27T01:22:12;9.80;99.90
32907;DHT22;19259;51.590;5.320;2022-09-27T01:27:47;9.70;99.90
32907;DHT22;19259;51.590;5.320;2022-09-27T01:30:22;9.60;99.90
32907;DHT22;19259;51.590;5.320;2022-09-27T01:35:50;9.50;99.90
32907;DHT22;19259;51.590;5.320;2022-09-27T01:41:19;9.40;99.90
32907;DHT22;19259;51.590;5.320;2022-09-27T01:43:56;9.40;99.90
32907;DHT22;19259;51.590;5.320;2022-09-27T01:46:42;9.50;99.90
32907;DHT22;19259;51.590;5.320;2022-09-27T01:49:16;9.50;99.90
32907;DHT22;19259;51.590;5.320;2022-09-27T01:51:50;9.50;99.90
32907;DHT22;19259;51.590;5.320;2022-09-27T01:54:21;9.40;99.90
32907;DHT22;19259;51.590;5.320;2022-09-27T01:56:50;9.50;99.90
32907;DHT22;19259;51.590;5.320;2022-09-27T01:59:22;9.40;99.90
32907;DHT22;19259;51.590;5.320;2022-09-27T02:01:52;9.30;99.90
32907;DHT22;19259;51.590;5.320;2022-09-27T02:04:26;9.30;99.90
32907;DHT22;19259;51.590;5.320;2022-09-27T02:06:58;9.30;99.90
32907;DHT22;19259;51.590;5.320;2022-09-27T02:09:30;9.20;99.90
32907;DHT22;19259;51.590;5.320;2022-09-27T02:12:00;9.20;99.90
32907;DHT22;19259;51.590;5.320;2022-09-27T02:14:33;9.20;99.90
32907;DHT22;19259;51.590;5.320;2022-09-27T02:17:22;9.10;99.90
32907;DHT22;19259;51.590;5.320;2022-09-27T02:22:43;9.20;99.90
32907;DHT22;19259;51.590;5.320;2022-09-27T02:28:30;9.00;99.90
32907;DHT22;19259;51.590;5.320;2022-09-27T02:30:58;9.00;99.90
32907;DHT22;19259;51.590;5.320;2022-09-27T02:33:35;9.00;99.90
32907;DHT22;19259;51.590;5.320;2022-09-27T02:36:00;9.00;99.90
32907;DHT22;19259;51.590;5.320;2022-09-27T02:38:27;9.00;99.90
32907;DHT22;19259;51.590;5.320;2022-09-27T02:40:55;9.00;99.90
32907;DHT22;19259;51.590;5.320;2022-09-27T02:43:24;8.90;99.90
32907;DHT22;19259;51.590;5.320;2022-09-27T02:57:39;8.90;99.90
32907;DHT22;19259;51.590;5.320;2022-09-27T03:00:06;8.80;99.90
32907;DHT22;19259;51.590;5.320;2022-09-27T03:05:12;8.70;99.90
32907;DHT22;19259;51.590;5.320;2022-09-27T03:07:40;8.80;99.90
32907;DHT22;19259;51.590;5.320;2022-09-27T03:10:20;8.80;99.90
32907;DHT22;19259;51.590;5.320;2022-09-27T03:12:44;8.80;99.90
32907;DHT22;19259;51.590;5.320;2022-09-27T03:15:12;8.70;99.90
32907;DHT22;19259;51.590;5.320;2022-09-27T03:17:40;8.70;99.90
32907;DHT22;19259;51.590;5.320;2022-09-27T03:20:07;8.60;99.90
32907;DHT22;19259;51.590;5.320;2022-09-27T03:22:35;8.60;99.90
32907;DHT22;19259;51.590;5.320;2022-09-27T03:25:07;8.70;99.90
32907;DHT22;19259;51.590;5.320;2022-09-27T03:27:34;8.80;99.90
32907;DHT22;19259;51.590;5.320;2022-09-27T03:30:03;8.80;99.90
32907;DHT22;19259;51.590;5.320;2022-09-27T03:32:31;8.80;99.90
32907;DHT22;19259;51.590;5.320;2022-09-27T03:34:59;8.80;99.90
32907;DHT22;19259;51.590;5.320;2022-09-27T03:37:27;8.80;99.90
32907;DHT22;19259;51.590;5.320;2022-09-27T03:39:55;8.80;99.90
32907;DHT22;19259;51.590;5.320;2022-09-27T03:42:22;8.80;99.90
32907;DHT22;19259;51.590;5.320;2022-09-27T03:44:50;8.90;99.90
32907;DHT22;19259;51.590;5.320;2022-09-27T03:47:17;8.90;99.90
32907;DHT22;19259;51.590;5.320;2022-09-27T03:49:45;9.00;99.90
32907;DHT22;19259;51.590;5.320;2022-09-27T03:52:12;9.00;99.90
32907;DHT22;19259;51.590;5.320;2022-09-27T03:54:40;9.00;99.90
32907;DHT22;19259;51.590;5.320;2022-09-27T03:57:08;9.00;99.90
32907;DHT22;19259;51.590;5.320;2022-09-27T03:59:36;9.00;99.90
32907;DHT22;19259;51.590;5.320;2022-09-27T04:02:03;9.10;99.90
32907;DHT22;19259;51.590;5.320;2022-09-27T04:04:31;9.10;99.90
32907;DHT22;19259;51.590;5.320;2022-09-27T04:06:58;9.10;99.90
32907;DHT22;19259;51.590;5.320;2022-09-27T04:09:26;9.10;99.90
32907;DHT22;19259;51.590;5.320;2022-09-27T04:11:53;9.00;99.90
32907;DHT22;19259;51.590;5.320;2022-09-27T04:14:20;9.00;99.90
32907;DHT22;19259;51.590;5.320;2022-09-27T04:16:48;9.00;99.90
32907;DHT22;19259;51.590;5.320;2022-09-27T04:19:15;8.90;99.90
32907;DHT22;19259;51.590;5.320;2022-09-27T04:21:43;8.90;99.90
32907;DHT22;19259;51.590;5.320;2022-09-27T04:24:11;8.80;99.90
32907;DHT22;19259;51.590;5.320;2022-09-27T04:26:38;8.80;99.90
32907;DHT22;19259;51.590;5.320;2022-09-27T04:29:06;8.80;99.90
32907;DHT22;19259;51.590;5.320;2022-09-27T04:31:35;8.80;99.90
32907;DHT22;19259;51.590;5.320;2022-09-27T04:34:06;8.80;99.90
32907;DHT22;19259;51.590;5.320;2022-09-27T04:36:34;8.70;99.90
32907;DHT22;19259;51.590;5.320;2022-09-27T04:39:05;8.60;99.90
32907;DHT22;19259;51.590;5.320;2022-09-27T04:41:33;8.60;99.90
32907;DHT22;19259;51.590;5.320;2022-09-27T04:44:01;8.70;99.90
32907;DHT22;19259;51.590;5.320;2022-09-27T04:46:29;8.70;99.90
32907;DHT22;19259;51.590;5.320;2022-09-27T04:48:58;8.70;99.90
32907;DHT22;19259;51.590;5.320;2022-09-27T04:51:26;8.70;99.90
32907;DHT22;19259;51.590;5.320;2022-09-27T04:53:55;8.70;99.90
32907;DHT22;19259;51.590;5.320;2022-09-27T04:56:23;8.70;99.90
32907;DHT22;19259;51.590;5.320;2022-09-27T04:58:51;8.70;99.90
32907;DHT22;19259;51.590;5.320;2022-09-27T05:01:19;8.60;99.90
32907;DHT22;19259;51.590;5.320;2022-09-27T05:03:48;8.70;99.90
32907;DHT22;19259;51.590;5.320;2022-09-27T05:06:15;8.70;99.90
32907;DHT22;19259;51.590;5.320;2022-09-27T05:08:43;8.70;99.90
32907;DHT22;19259;51.590;5.320;2022-09-27T05:11:11;8.70;99.90
32907;DHT22;19259;51.590;5.320;2022-09-27T05:13:38;8.70;99.90
32907;DHT22;19259;51.590;5.320;2022-09-27T05:16:06;8.60;99.90
32907;DHT22;19259;51.590;5.320;2022-09-27T05:18:34;8.60;99.90
32907;DHT22;19259;51.590;5.320;2022-09-27T05:21:01;8.70;99.90
32907;DHT22;19259;51.590;5.320;2022-09-27T05:23:29;8.70;99.90
32907;DHT22;19259;51.590;5.320;2022-09-27T05:25:57;8.70;99.90
32907;DHT22;19259;51.590;5.320;2022-09-27T05:28:24;8.70;99.90
32907;DHT22;19259;51.590;5.320;2022-09-27T05:30:52;8.70;99.90
32907;DHT22;19259;51.590;5.320;2022-09-27T05:33:19;8.70;99.90
32907;DHT22;19259;51.590;5.320;2022-09-27T05:35:54;8.70;99.90
32907;DHT22;19259;51.590;5.320;2022-09-27T05:38:23;8.70;99.90
32907;DHT22;19259;51.590;5.320;2022-09-27T05:40:51;8.70;99.90
32907;DHT22;19259;51.590;5.320;2022-09-27T05:43:18;8.70;99.90
32907;DHT22;19259;51.590;5.320;2022-09-27T05:45:47;8.60;99.90
32907;DHT22;19259;51.590;5.320;2022-09-27T05:48:14;8.70;99.90
32907;DHT22;19259;51.590;5.320;2022-09-27T05:50:42;8.70;99.90
32907;DHT22;19259;51.590;5.320;2022-09-27T05:53:10;8.70;99.90
32907;DHT22;19259;51.590;5.320;2022-09-27T05:55:38;8.70;99.90
32907;DHT22;19259;51.590;5.320;2022-09-27T05:58:07;8.80;99.90
32907;DHT22;19259;51.590;5.320;2022-09-27T06:00:37;8.70;99.90
32907;DHT22;19259;51.590;5.320;2022-09-27T06:03:06;8.80;99.90
32907;DHT22;19259;51.590;5.320;2022-09-27T06:05:38;8.70;99.90
32907;DHT22;19259;51.590;5.320;2022-09-27T06:08:08;8.80;99.90
32907;DHT22;19259;51.590;5.320;2022-09-27T06:10:37;8.70;99.90
32907;DHT22;19259;51.590;5.320;2022-09-27T06:13:07;8.70;99.90
32907;DHT22;19259;51.590;5.320;2022-09-27T06:15:37;8.70;99.90
32907;DHT22;19259;51.590;5.320;2022-09-27T06:18:11;8.60;99.90
32907;DHT22;19259;51.590;5.320;2022-09-27T06:20:36;8.60;99.90
32907;DHT22;19259;51.590;5.320;2022-09-27T06:23:09;8.60;99.90
32907;DHT22;19259;51.590;5.320;2022-09-27T06:25:35;8.60;99.90
32907;DHT22;19259;51.590;5.320;2022-09-27T06:28:03;8.60;99.90
32907;DHT22;19259;51.590;5.320;2022-09-27T06:30:32;8.60;99.90
32907;DHT22;19259;51.590;5.320;2022-09-27T06:33:00;8.60;99.90
32907;DHT22;19259;51.590;5.320;2022-09-27T06:35:29;8.60;99.90
32907;DHT22;19259;51.590;5.320;2022-09-27T06:37:57;8.60;99.90
32907;DHT22;19259;51.590;5.320;2022-09-27T06:40:24;8.60;99.90
32907;DHT22;19259;51.590;5.320;2022-09-27T06:42:52;8.60;99.90
32907;DHT22;19259;51.590;5.320;2022-09-27T06:45:20;8.70;99.90
32907;DHT22;19259;51.590;5.320;2022-09-27T06:47:49;8.70;99.90
32907;DHT22;19259;51.590;5.320;2022-09-27T06:50:16;8.70;99.90
32907;DHT22;19259;51.590;5.320;2022-09-27T06:52:48;8.60;99.90
32907;DHT22;19259;51.590;5.320;2022-09-27T06:55:17;8.70;99.90
32907;DHT22;19259;51.590;5.320;2022-09-27T06:57:44;8.80;99.90
32907;DHT22;19259;51.590;5.320;2022-09-27T07:00:30;8.80;99.90
32907;DHT22;19259;51.590;5.320;2022-09-27T07:03:02;8.80;99.90
32907;DHT22;19259;51.590;5.320;2022-09-27T07:05:30;8.90;99.90
32907;DHT22;19259;51.590;5.320;2022-09-27T07:08:01;8.90;99.90
32907;DHT22;19259;51.590;5.320;2022-09-27T07:10:30;9.00;99.90
32907;DHT22;19259;51.590;5.320;2022-09-27T07:13:03;9.10;99.90
32907;DHT22;19259;51.590;5.320;2022-09-27T07:15:31;9.10;99.90
32907;DHT22;19259;51.590;5.320;2022-09-27T07:18:00;9.10;99.90
32907;DHT22;19259;51.590;5.320;2022-09-27T07:20:28;9.10;99.90
32907;DHT22;19259;51.590;5.320;2022-09-27T07:22:57;9.10;99.90
32907;DHT22;19259;51.590;5.320;2022-09-27T07:25:25;9.20;99.90
32907;DHT22;19259;51.590;5.320;2022-09-27T07:27:53;9.20;99.90
32907;DHT22;19259;51.590;5.320;2022-09-27T07:30:21;9.20;99.90
32907;DHT22;19259;51.590;5.320;2022-09-27T07:32:48;9.30;99.90
32907;DHT22;19259;51.590;5.320;2022-09-27T07:35:16;9.30;99.90
32907;DHT22;19259;51.590;5.320;2022-09-27T07:37:44;9.40;99.90
32907;DHT22;19259;51.590;5.320;2022-09-27T07:40:15;9.30;99.90
32907;DHT22;19259;51.590;5.320;2022-09-27T07:42:45;9.40;99.90
32907;DHT22;19259;51.590;5.320;2022-09-27T07:45:13;9.40;99.90
32907;DHT22;19259;51.590;5.320;2022-09-27T07:47:42;9.30;99.90
32907;DHT22;19259;51.590;5.320;2022-09-27T07:50:10;9.40;99.90
32907;DHT22;19259;51.590;5.320;2022-09-27T07:52:43;9.40;99.90
32907;DHT22;19259;51.590;5.320;2022-09-27T07:55:13;9.40;99.90
32907;DHT22;19259;51.590;5.320;2022-09-27T07:57:42;9.40;99.90
32907;DHT22;19259;51.590;5.320;2022-09-27T08:00:15;9.50;99.90
32907;DHT22;19259;51.590;5.320;2022-09-27T08:02:43;9.50;99.90
32907;DHT22;19259;51.590;5.320;2022-09-27T08:05:11;9.50;99.90
32907;DHT22;19259;51.590;5.320;2022-09-27T08:07:40;9.40;99.90
32907;DHT22;19259;51.590;5.320;2022-09-27T08:10:08;9.50;99.90
32907;DHT22;19259;51.590;5.320;2022-09-27T08:12:39;9.60;99.90
32907;DHT22;19259;51.590;5.320;2022-09-27T08:15:05;9.50;99.90
32907;DHT22;19259;51.590;5.320;2022-09-27T08:17:33;9.50;99.90
32907;DHT22;19259;51.590;5.320;2022-09-27T08:20:01;9.60;99.90
32907;DHT22;19259;51.590;5.320;2022-09-27T08:22:30;9.70;99.90
32907;DHT22;19259;51.590;5.320;2022-09-27T08:24:58;9.60;99.90
32907;DHT22;19259;51.590;5.320;2022-09-27T08:27:25;9.70;99.90
32907;DHT22;19259;51.590;5.320;2022-09-27T08:29:56;9.70;99.90
32907;DHT22;19259;51.590;5.320;2022-09-27T08:32:23;9.70;99.90
32907;DHT22;19259;51.590;5.320;2022-09-27T08:34:53;9.80;99.90
32907;DHT22;19259;51.590;5.320;2022-09-27T08:37:20;9.80;99.90
32907;DHT22;19259;51.590;5.320;2022-09-27T08:39:48;9.80;99.90
32907;DHT22;19259;51.590;5.320;2022-09-27T08:42:31;9.80;99.90
32907;DHT22;19259;51.590;5.320;2022-09-27T08:45:07;9.80;99.90
32907;DHT22;19259;51.590;5.320;2022-09-27T08:47:36;9.90;99.90
32907;DHT22;19259;51.590;5.320;2022-09-27T08:52:44;9.80;99.90
32907;DHT22;19259;51.590;5.320;2022-09-27T08:57:56;9.70;99.90
32907;DHT22;19259;51.590;5.320;2022-09-27T09:00:26;9.80;99.90
32907;DHT22;19259;51.590;5.320;2022-09-27T09:02:56;9.90;99.90
32907;DHT22;19259;51.590;5.320;2022-09-27T09:05:32;9.90;99.90
32907;DHT22;19259;51.590;5.320;2022-09-27T09:10:55;10.00;99.90
32907;DHT22;19259;51.590;5.320;2022-09-27T09:13:48;9.90;99.90
32907;DHT22;19259;51.590;5.320;2022-09-27T09:24:48;9.80;99.90
32907;DHT22;19259;51.590;5.320;2022-09-27T09:30:18;9.80;99.90
32907;DHT22;19259;51.590;5.320;2022-09-27T09:33:00;9.80;99.90
32907;DHT22;19259;51.590;5.320;2022-09-27T09:38:07;9.70;99.90
32907;DHT22;19259;51.590;5.320;2022-09-27T09:43:34;9.70;99.90
32907;DHT22;19259;51.590;5.320;2022-09-27T09:46:30;9.70;99.90
32907;DHT22;19259;51.590;5.320;2022-09-27T09:49:09;9.70;99.90
32907;DHT22;19259;51.590;5.320;2022-09-27T09:51:37;9.60;99.90
32907;DHT22;19259;51.590;5.320;2022-09-27T09:54:07;9.60;99.90
32907;DHT22;19259;51.590;5.320;2022-09-27T09:56:44;9.70;99.90
32907;DHT22;19259;51.590;5.320;2022-09-27T09:59:16;9.70;99.90
32907;DHT22;19259;51.590;5.320;2022-09-27T10:01:45;9.80;99.90
32907;DHT22;19259;51.590;5.320;2022-09-27T10:04:22;9.80;99.90
32907;DHT22;19259;51.590;5.320;2022-09-27T10:06:51;9.70;99.90
32907;DHT22;19259;51.590;5.320;2022-09-27T10:09:21;9.50;99.90
32907;DHT22;19259;51.590;5.320;2022-09-27T10:11:49;9.40;99.90
32907;DHT22;19259;51.590;5.320;2022-09-27T10:14:19;9.40;99.90
32907;DHT22;19259;51.590;5.320;2022-09-27T10:16:49;9.50;99.90
32907;DHT22;19259;51.590;5.320;2022-09-27T10:19:24;9.50;99.90
32907;DHT22;19259;51.590;5.320;2022-09-27T10:21:52;9.70;99.90
32907;DHT22;19259;51.590;5.320;2022-09-27T10:24:20;9.90;99.90
32907;DHT22;19259;51.590;5.320;2022-09-27T10:26:48;10.00;99.90
32907;DHT22;19259;51.590;5.320;2022-09-27T10:29:22;10.20;99.90
32907;DHT22;19259;51.590;5.320;2022-09-27T10:31:51;10.20;99.90
32907;DHT22;19259;51.590;5.320;2022-09-27T10:34:41;10.10;99.90
32907;DHT22;19259;51.590;5.320;2022-09-27T10:37:23;10.00;99.90
32907;DHT22;19259;51.590;5.320;2022-09-27T10:39:51;9.90;99.90
32907;DHT22;19259;51.590;5.320;2022-09-27T10:42:21;9.90;99.90
32907;DHT22;19259;51.590;5.320;2022-09-27T10:44:49;10.00;99.90
32907;DHT22;19259;51.590;5.320;2022-09-27T10:47:19;10.00;99.90
32907;DHT22;19259;51.590;5.320;2022-09-27T10:49:49;10.00;99.90
32907;DHT22;19259;51.590;5.320;2022-09-27T10:52:22;10.00;99.90
32907;DHT22;19259;51.590;5.320;2022-09-27T10:54:56;10.00;99.90
32907;DHT22;19259;51.590;5.320;2022-09-27T10:57:25;10.00;99.90
32907;DHT22;19259;51.590;5.320;2022-09-27T10:59:59;9.90;99.90
32907;DHT22;19259;51.590;5.320;2022-09-27T11:02:30;10.10;99.90
32907;DHT22;19259;51.590;5.320;2022-09-27T11:05:13;10.10;99.90
32907;DHT22;19259;51.590;5.320;2022-09-27T11:07:55;10.20;99.90
32907;DHT22;19259;51.590;5.320;2022-09-27T11:10:34;10.20;99.90
32907;DHT22;19259;51.590;5.320;2022-09-27T11:13:07;10.20;99.90
32907;DHT22;19259;51.590;5.320;2022-09-27T11:15:41;10.30;99.90
32907;DHT22;19259;51.590;5.320;2022-09-27T11:18:16;10.40;99.90
32907;DHT22;19259;51.590;5.320;2022-09-27T11:20:45;10.50;99.90
32907;DHT22;19259;51.590;5.320;2022-09-27T11:32:00;10.60;99.90
32907;DHT22;19259;51.590;5.320;2022-09-27T11:34:35;10.70;99.90
32907;DHT22;19259;51.590;5.320;2022-09-27T11:37:11;10.80;99.90
32907;DHT22;19259;51.590;5.320;2022-09-27T11:48:12;11.00;99.90
32907;DHT22;19259;51.590;5.320;2022-09-27T11:53:18;10.90;99.90
32907;DHT22;19259;51.590;5.320;2022-09-27T11:56:00;10.80;99.90
32907;DHT22;19259;51.590;5.320;2022-09-27T11:58:38;10.80;99.90
32907;DHT22;19259;51.590;5.320;2022-09-27T12:01:28;11.20;99.90
32907;DHT22;19259;51.590;5.320;2022-09-27T12:04:19;11.50;99.90
32907;DHT22;19259;51.590;5.320;2022-09-27T12:06:57;11.50;99.90
32907;DHT22;19259;51.590;5.320;2022-09-27T12:09:30;11.70;99.90
32907;DHT22;19259;51.590;5.320;2022-09-27T12:12:02;11.50;99.90
32907;DHT22;19259;51.590;5.320;2022-09-27T12:17:25;11.70;99.90
32907;DHT22;19259;51.590;5.320;2022-09-27T12:19:55;11.30;99.90
32907;DHT22;19259;51.590;5.320;2022-09-27T12:22:36;11.40;99.90
32907;DHT22;19259;51.590;5.320;2022-09-27T12:24:59;11.40;99.90
32907;DHT22;19259;51.590;5.320;2022-09-27T12:27:50;11.40;99.90
32907;DHT22;19259;51.590;5.320;2022-09-27T12:30:18;11.40;99.90
32907;DHT22;19259;51.590;5.320;2022-09-27T12:33:12;11.20;99.90
32907;DHT22;19259;51.590;5.320;2022-09-27T12:35:39;11.20;99.90
32907;DHT22;19259;51.590;5.320;2022-09-27T12:38:13;11.30;99.90
32907;DHT22;19259;51.590;5.320;2022-09-27T12:40:46;11.20;99.90
32907;DHT22;19259;51.590;5.320;2022-09-27T12:43:22;11.30;99.90
32907;DHT22;19259;51.590;5.320;2022-09-27T12:49:04;11.50;99.90
32907;DHT22;19259;51.590;5.320;2022-09-27T12:51:47;11.60;99.90
32907;DHT22;19259;51.590;5.320;2022-09-27T12:54:54;11.40;99.90
32907;DHT22;19259;51.590;5.320;2022-09-27T12:57:31;11.30;99.90
32907;DHT22;19259;51.590;5.320;2022-09-27T13:00:35;11.20;99.90
32907;DHT22;19259;51.590;5.320;2022-09-27T13:11:57;11.70;99.90
32907;DHT22;19259;51.590;5.320;2022-09-27T13:14:25;11.70;99.90
32907;DHT22;19259;51.590;5.320;2022-09-27T13:16:54;11.90;99.90
32907;DHT22;19259;51.590;5.320;2022-09-27T13:22:34;11.70;99.90
32907;DHT22;19259;51.590;5.320;2022-09-27T13:24:47;11.80;99.90
32907;DHT22;19259;51.590;5.320;2022-09-27T13:33:20;11.90;99.90
32907;DHT22;19259;51.590;5.320;2022-09-27T13:35:31;11.70;99.90
32907;DHT22;19259;51.590;5.320;2022-09-27T13:37:59;11.70;99.90
32907;DHT22;19259;51.590;5.320;2022-09-27T13:40:42;11.70;99.90
32907;DHT22;19259;51.590;5.320;2022-09-27T13:45:53;12.00;99.90
32907;DHT22;19259;51.590;5.320;2022-09-27T13:48:31;12.10;99.90
32907;DHT22;19259;51.590;5.320;2022-09-27T13:51:01;11.90;99.90
32907;DHT22;19259;51.590;5.320;2022-09-27T13:53:38;11.90;99.90
32907;DHT22;19259;51.590;5.320;2022-09-27T13:56:45;11.80;99.90
32907;DHT22;19259;51.590;5.320;2022-09-27T13:58:48;11.70;99.90
32907;DHT22;19259;51.590;5.320;2022-09-27T14:01:43;11.70;99.90
32907;DHT22;19259;51.590;5.320;2022-09-27T14:04:02;11.70;99.90
32907;DHT22;19259;51.590;5.320;2022-09-27T14:06:33;11.50;99.90
32907;DHT22;19259;51.590;5.320;2022-09-27T14:09:06;11.30;99.90
32907;DHT22;19259;51.590;5.320;2022-09-27T14:11:37;11.20;99.90
32907;DHT22;19259;51.590;5.320;2022-09-27T14:14:13;11.10;99.90
32907;DHT22;19259;51.590;5.320;2022-09-27T14:16:39;11.00;99.90
32907;DHT22;19259;51.590;5.320;2022-09-27T14:19:12;10.60;99.90
32907;DHT22;19259;51.590;5.320;2022-09-27T14:21:41;10.70;99.90
32907;DHT22;19259;51.590;5.320;2022-09-27T14:24:31;10.70;99.90
32907;DHT22;19259;51.590;5.320;2022-09-27T14:27:18;10.80;99.90
32907;DHT22;19259;51.590;5.320;2022-09-27T14:29:54;10.70;99.90
32907;DHT22;19259;51.590;5.320;2022-09-27T14:32:33;10.80;99.90
32907;DHT22;19259;51.590;5.320;2022-09-27T14:35:10;10.80;99.90
32907;DHT22;19259;51.590;5.320;2022-09-27T14:37:40;10.80;99.90
32907;DHT22;19259;51.590;5.320;2022-09-27T14:40:17;10.70;99.90
32907;DHT22;19259;51.590;5.320;2022-09-27T14:42:41;10.70;99.90
32907;DHT22;19259;51.590;5.320;2022-09-27T14:45:27;10.80;99.90
32907;DHT22;19259;51.590;5.320;2022-09-27T14:47:57;10.70;99.90
32907;DHT22;19259;51.590;5.320;2022-09-27T14:50:28;10.70;99.90
32907;DHT22;19259;51.590;5.320;2022-09-27T14:52:57;10.60;99.90
32907;DHT22;19259;51.590;5.320;2022-09-27T14:55:28;10.70;99.90
32907;DHT22;19259;51.590;5.320;2022-09-27T14:58:04;10.80;99.90
32907;DHT22;19259;51.590;5.320;2022-09-27T15:00:31;11.00;99.90
32907;DHT22;19259;51.590;5.320;2022-09-27T15:03:06;11.10;99.90
32907;DHT22;19259;51.590;5.320;2022-09-27T15:05:39;11.20;99.90
32907;DHT22;19259;51.590;5.320;2022-09-27T15:08:05;11.10;99.90
32907;DHT22;19259;51.590;5.320;2022-09-27T15:10:35;11.00;99.90
32907;DHT22;19259;51.590;5.320;2022-09-27T15:13:04;11.10;99.90
32907;DHT22;19259;51.590;5.320;2022-09-27T15:15:35;11.20;99.90
32907;DHT22;19259;51.590;5.320;2022-09-27T15:18:43;11.10;99.90
32907;DHT22;19259;51.590;5.320;2022-09-27T15:22:07;11.00;99.90
32907;DHT22;19259;51.590;5.320;2022-09-27T15:23:44;10.80;99.90
32907;DHT22;19259;51.590;5.320;2022-09-27T15:26:22;10.70;99.90
32907;DHT22;19259;51.590;5.320;2022-09-27T15:28:51;10.50;99.90
32907;DHT22;19259;51.590;5.320;2022-09-27T15:31:30;10.50;99.90
32907;DHT22;19259;51.590;5.320;2022-09-27T15:33:58;10.60;99.90
32907;DHT22;19259;51.590;5.320;2022-09-27T15:39:18;10.40;99.90
32907;DHT22;19259;51.590;5.320;2022-09-27T15:42:13;10.30;99.90
32907;DHT22;19259;51.590;5.320;2022-09-27T15:50:30;10.20;99.90
32907;DHT22;19259;51.590;5.320;2022-09-27T15:52:48;10.10;99.90
32907;DHT22;19259;51.590;5.320;2022-09-27T15:55:25;10.00;99.90
32907;DHT22;19259;51.590;5.320;2022-09-27T15:57:58;9.90;99.90
32907;DHT22;19259;51.590;5.320;2022-09-27T16:00:28;9.70;99.90
32907;DHT22;19259;51.590;5.320;2022-09-27T16:02:56;9.80;99.90
32907;DHT22;19259;51.590;5.320;2022-09-27T16:05:23;9.60;99.90
32907;DHT22;19259;51.590;5.320;2022-09-27T16:07:53;9.60;99.90
32907;DHT22;19259;51.590;5.320;2022-09-27T16:10:23;9.50;99.90
32907;DHT22;19259;51.590;5.320;2022-09-27T16:12:51;9.60;99.90
32907;DHT22;19259;51.590;5.320;2022-09-27T16:15:19;9.40;99.90
32907;DHT22;19259;51.590;5.320;2022-09-27T16:17:46;9.40;99.90
32907;DHT22;19259;51.590;5.320;2022-09-27T16:20:19;9.40;99.90
32907;DHT22;19259;51.590;5.320;2022-09-27T16:22:49;9.50;99.90
32907;DHT22;19259;51.590;5.320;2022-09-27T16:25:17;9.70;99.90
32907;DHT22;19259;51.590;5.320;2022-09-27T16:27:45;9.70;99.90
32907;DHT22;19259;51.590;5.320;2022-09-27T16:30:13;9.70;99.90
32907;DHT22;19259;51.590;5.320;2022-09-27T16:32:48;9.80;99.90
32907;DHT22;19259;51.590;5.320;2022-09-27T16:35:17;9.80;99.90
32907;DHT22;19259;51.590;5.320;2022-09-27T16:37:45;9.70;99.90
32907;DHT22;19259;51.590;5.320;2022-09-27T16:40:13;9.60;99.90
32907;DHT22;19259;51.590;5.320;2022-09-27T16:42:44;9.60;99.90
32907;DHT22;19259;51.590;5.320;2022-09-27T16:45:11;9.40;99.90
32907;DHT22;19259;51.590;5.320;2022-09-27T16:47:40;9.20;99.90
32907;DHT22;19259;51.590;5.320;2022-09-27T16:50:10;9.10;99.90
32907;DHT22;19259;51.590;5.320;2022-09-27T16:52:56;9.20;99.90
32907;DHT22;19259;51.590;5.320;2022-09-27T16:55:26;9.30;99.90
32907;DHT22;19259;51.590;5.320;2022-09-27T16:57:56;9.10;99.90
32907;DHT22;19259;51.590;5.320;2022-09-27T17:00:24;9.20;99.90
32907;DHT22;19259;51.590;5.320;2022-09-27T17:02:52;9.20;99.90
32907;DHT22;19259;51.590;5.320;2022-09-27T17:05:20;9.20;99.90
32907;DHT22;19259;51.590;5.320;2022-09-27T17:07:53;9.20;99.90
32907;DHT22;19259;51.590;5.320;2022-09-27T17:10:21;9.20;99.90
32907;DHT22;19259;51.590;5.320;2022-09-27T17:12:49;9.20;99.90
32907;DHT22;19259;51.590;5.320;2022-09-27T17:15:17;9.20;99.90
32907;DHT22;19259;51.590;5.320;2022-09-27T17:17:49;9.20;99.90
32907;DHT22;19259;51.590;5.320;2022-09-27T17:20:16;9.30;99.90
32907;DHT22;19259;51.590;5.320;2022-09-27T17:22:44;9.30;99.90
32907;DHT22;19259;51.590;5.320;2022-09-27T17:25:11;9.20;99.90
32907;DHT22;19259;51.590;5.320;2022-09-27T17:27:39;9.40;99.90
32907;DHT22;19259;51.590;5.320;2022-09-27T17:30:07;9.30;99.90
32907;DHT22;19259;51.590;5.320;2022-09-27T17:32:35;9.30;99.90
32907;DHT22;19259;51.590;5.320;2022-09-27T17:35:05;9.30;99.90
32907;DHT22;19259;51.590;5.320;2022-09-27T17:37:34;9.30;99.90
32907;DHT22;19259;51.590;5.320;2022-09-27T17:40:03;9.20;99.90
32907;DHT22;19259;51.590;5.320;2022-09-27T17:42:31;9.30;99.90
32907;DHT22;19259;51.590;5.320;2022-09-27T17:44:59;9.30;99.90
32907;DHT22;19259;51.590;5.320;2022-09-27T17:47:27;9.20;99.90
32907;DHT22;19259;51.590;5.320;2022-09-27T17:50:12;9.20;99.90
32907;DHT22;19259;51.590;5.320;2022-09-27T17:52:55;9.30;99.90
32907;DHT22;19259;51.590;5.320;2022-09-27T17:55:23;9.30;99.90
32907;DHT22;19259;51.590;5.320;2022-09-27T17:57:51;9.30;99.90
32907;DHT22;19259;51.590;5.320;2022-09-27T18:00:19;9.30;99.90
32907;DHT22;19259;51.590;5.320;2022-09-27T18:02:46;9.30;99.90
32907;DHT22;19259;51.590;5.320;2022-09-27T18:05:17;9.30;99.90